createdAt,value
2022-10-19T00:01:22.270Z,9.25
2022-10-19T00:03:53.180Z,9.65
2022-10-19T00:06:29.960Z,8.70
2022-10-19T00:09:01.201Z,10.17
2022-10-19T00:11:30.372Z,10.93
2022-10-19T00:13:59.981Z,10.15
2022-10-19T00:16:48.867Z,10.32
2022-10-19T00:19:23.434Z,11.05
2022-10-19T00:21:51.670Z,9.83
2022-10-19T00:24:20.494Z,10.05
2022-10-19T00:26:48.391Z,12.32
2022-10-19T00:29:16.899Z,11.82
2022-10-19T00:31:45.487Z,11.82
2022-10-19T00:34:13.447Z,12.07
2022-10-19T00:36:42.166Z,12.82
2022-10-19T00:39:16.092Z,14.23
2022-10-19T00:41:46.766Z,15.00
2022-10-19T00:44:16.160Z,14.52
2022-10-19T00:46:46.243Z,14.23
2022-10-19T00:49:15.693Z,14.00
2022-10-19T00:51:48.428Z,13.82
2022-10-19T00:54:18.033Z,14.43
2022-10-19T00:56:49.601Z,15.18
2022-10-19T00:59:20.663Z,15.43
2022-10-19T01:01:50.397Z,14.60
2022-10-19T01:04:21.245Z,16.17
2022-10-19T01:06:48.984Z,15.20
2022-10-19T01:09:17.554Z,15.80
2022-10-19T01:12:08.084Z,14.87
2022-10-19T01:15:06.614Z,14.32
2022-10-19T01:17:51.323Z,13.50
2022-10-19T01:20:41.000Z,12.35
2022-10-19T01:23:52.813Z,13.25
2022-10-19T01:27:02.166Z,12.37
2022-10-19T01:29:35.629Z,11.10
2022-10-19T01:32:12.425Z,10.05
2022-10-19T01:35:07.661Z,11.38
2022-10-19T01:37:50.503Z,11.93
2022-10-19T01:40:32.753Z,11.27
2022-10-19T01:43:13.292Z,12.45
2022-10-19T01:45:52.496Z,12.50
2022-10-19T01:48:35.110Z,12.88
2022-10-19T01:51:05.250Z,12.98
2022-10-19T01:53:41.806Z,11.43
2022-10-19T01:56:10.187Z,12.27
2022-10-19T01:58:41.518Z,12.30
2022-10-19T02:03:50.207Z,12.02
2022-10-19T02:06:18.617Z,12.13
2022-10-19T02:08:52.297Z,11.13
2022-10-19T02:11:22.531Z,12.80
2022-10-19T02:13:57.036Z,11.70
2022-10-19T02:16:31.116Z,11.10
2022-10-19T02:19:00.554Z,11.70
2022-10-19T02:21:29.105Z,11.13
2022-10-19T02:23:57.248Z,12.07
2022-10-19T02:26:24.950Z,11.65
2022-10-19T02:28:55.890Z,11.93
2022-10-19T02:31:24.332Z,14.13
2022-10-19T02:33:52.984Z,11.98
2022-10-19T02:36:21.337Z,11.75
2022-10-19T02:38:49.366Z,12.35
2022-10-19T02:41:35.401Z,10.90
2022-10-19T02:44:09.741Z,12.43
2022-10-19T02:46:46.769Z,11.63
2022-10-19T02:49:15.756Z,11.65
2022-10-19T02:52:01.092Z,12.27
2022-10-19T02:54:30.078Z,12.40
2022-10-19T02:56:57.743Z,12.17
2022-10-19T02:59:26.443Z,12.27
2022-10-19T03:01:54.029Z,12.05
2022-10-19T03:04:22.467Z,12.70
2022-10-19T03:06:50.698Z,12.80
2022-10-19T03:09:18.892Z,12.07
2022-10-19T03:11:46.519Z,12.40
2022-10-19T03:14:14.682Z,15.00
2022-10-19T03:16:42.343Z,13.20
2022-10-19T03:19:10.538Z,14.48
2022-10-19T03:21:38.218Z,13.33
2022-10-19T03:24:06.613Z,13.45
2022-10-19T03:26:34.224Z,13.55
2022-10-19T03:29:02.692Z,11.60
2022-10-19T03:31:30.341Z,11.98
2022-10-19T03:33:58.638Z,12.17
2022-10-19T03:36:29.050Z,9.50
2022-10-19T03:38:59.766Z,10.77
2022-10-19T03:41:30.250Z,9.63
2022-10-19T03:46:26.574Z,10.00
2022-10-19T03:48:55.296Z,9.55
2022-10-19T03:51:26.138Z,9.98
2022-10-19T03:53:58.180Z,9.88
2022-10-19T03:56:27.794Z,9.27
2022-10-19T03:58:57.625Z,9.47
2022-10-19T04:01:45.983Z,8.77
2022-10-19T04:04:16.796Z,10.23
2022-10-19T04:06:47.363Z,10.00
2022-10-19T04:09:18.270Z,10.52
2022-10-19T04:11:46.396Z,10.97
2022-10-19T04:14:26.741Z,11.77
2022-10-19T04:17:03.672Z,10.73
2022-10-19T04:19:32.170Z,11.90
2022-10-19T04:21:59.851Z,10.40
2022-10-19T04:24:28.334Z,11.37
2022-10-19T04:26:56.937Z,10.20
2022-10-19T04:29:29.695Z,10.95
2022-10-19T04:31:58.271Z,10.73
2022-10-19T04:34:26.161Z,11.48
2022-10-19T04:36:54.234Z,12.13
2022-10-19T04:39:22.286Z,10.98
2022-10-19T04:41:50.010Z,10.93
2022-10-19T04:44:17.979Z,14.52
2022-10-19T04:46:45.910Z,11.25
2022-10-19T04:49:16.506Z,10.67
2022-10-19T04:51:47.367Z,11.15
2022-10-19T04:54:15.518Z,11.80
2022-10-19T04:56:43.345Z,11.57
2022-10-19T04:59:11.437Z,11.35
2022-10-19T05:01:42.196Z,10.23
2022-10-19T05:04:12.705Z,10.30
2022-10-19T05:06:40.365Z,11.77
2022-10-19T05:09:08.340Z,10.68
2022-10-19T05:11:36.465Z,12.00
2022-10-19T05:14:04.639Z,10.07
2022-10-19T05:16:32.238Z,11.15
2022-10-19T05:19:00.406Z,11.73
2022-10-19T05:21:29.552Z,11.02
2022-10-19T05:23:58.431Z,10.30
2022-10-19T05:26:28.112Z,9.10
2022-10-19T05:29:00.708Z,11.20
2022-10-19T05:31:31.298Z,11.57
2022-10-19T05:34:00.472Z,11.07
2022-10-19T05:36:32.600Z,8.48
2022-10-19T05:39:04.387Z,9.40
2022-10-19T05:41:36.071Z,11.70
2022-10-19T05:44:05.834Z,10.70
2022-10-19T05:46:34.625Z,11.98
2022-10-19T05:49:03.870Z,11.27
2022-10-19T05:51:31.856Z,10.07
2022-10-19T05:53:59.868Z,9.75
2022-10-19T05:56:30.255Z,10.35
2022-10-19T05:59:04.343Z,10.10
2022-10-19T06:01:32.619Z,11.45
2022-10-19T06:04:02.372Z,9.23
2022-10-19T06:06:31.162Z,9.65
2022-10-19T06:08:59.470Z,10.15
2022-10-19T06:11:30.285Z,10.00
2022-10-19T06:13:59.971Z,10.32
2022-10-19T06:16:28.355Z,10.57
2022-10-19T06:18:58.429Z,9.35
2022-10-19T06:21:29.454Z,10.63
2022-10-19T06:24:00.620Z,12.55
2022-10-19T06:26:30.384Z,11.30
2022-10-19T06:29:01.329Z,11.60
2022-10-19T06:31:31.022Z,12.23
2022-10-19T06:33:59.203Z,11.43
2022-10-19T06:36:30.253Z,10.88
2022-10-19T06:39:00.344Z,31.88
2022-10-19T06:41:29.197Z,29.63
2022-10-19T06:43:57.641Z,19.48
2022-10-19T06:46:27.360Z,12.13
2022-10-19T06:48:58.201Z,11.35
2022-10-19T06:51:28.558Z,10.20
2022-10-19T06:53:57.523Z,10.13
2022-10-19T06:56:26.212Z,10.52
2022-10-19T06:58:54.949Z,11.65
2022-10-19T07:01:23.731Z,11.05
2022-10-19T07:03:53.210Z,11.88
2022-10-19T07:06:21.777Z,12.60
2022-10-19T07:08:50.202Z,11.48
2022-10-19T07:11:21.011Z,15.45
2022-10-19T07:13:50.589Z,12.05
2022-10-19T07:16:20.961Z,10.43
2022-10-19T07:18:52.583Z,34.60
2022-10-19T07:21:22.286Z,13.85
2022-10-19T07:23:50.652Z,10.90
2022-10-19T07:26:24.175Z,11.70
2022-10-19T07:28:52.595Z,11.85
2022-10-19T07:31:22.519Z,10.47
2022-10-19T07:33:55.267Z,11.32
2022-10-19T07:36:23.428Z,11.77
2022-10-19T07:38:51.374Z,11.90
2022-10-19T07:41:21.866Z,12.13
2022-10-19T07:43:51.227Z,11.57
2022-10-19T07:46:29.389Z,12.05
2022-10-19T07:48:57.442Z,19.00
2022-10-19T07:51:25.370Z,12.23
2022-10-19T07:53:53.567Z,11.02
2022-10-19T07:56:23.574Z,11.47
2022-10-19T07:58:53.980Z,11.60
2022-10-19T08:01:24.081Z,13.25
2022-10-19T08:05:12.482Z,13.10
2022-10-19T08:07:41.844Z,14.20
2022-10-19T08:10:10.435Z,13.93
2022-10-19T08:12:38.490Z,14.38
2022-10-19T08:15:07.464Z,13.95
2022-10-19T08:17:37.383Z,12.90
2022-10-19T08:20:07.465Z,12.48
2022-10-19T08:22:35.417Z,12.37
2022-10-19T08:25:04.283Z,11.70
2022-10-19T08:27:32.062Z,11.95
2022-10-19T08:30:00.030Z,12.05
2022-10-19T08:32:28.256Z,11.52
2022-10-19T08:34:56.169Z,12.43
2022-10-19T08:37:40.329Z,11.75
2022-10-19T08:40:23.197Z,14.82
2022-10-19T08:42:56.519Z,12.15
2022-10-19T08:45:36.584Z,13.50
2022-10-19T08:48:16.432Z,12.00
2022-10-19T08:50:46.687Z,14.70
2022-10-19T08:53:33.840Z,14.63
2022-10-19T08:56:38.888Z,17.15
2022-10-19T08:59:21.971Z,20.35
2022-10-19T09:02:00.309Z,17.30
2022-10-19T09:04:38.631Z,22.25
2022-10-19T09:07:18.584Z,16.25
2022-10-19T09:10:19.400Z,13.65
2022-10-19T09:13:03.694Z,11.52
2022-10-19T09:15:52.104Z,8.63
2022-10-19T09:18:30.408Z,7.63
2022-10-19T09:21:06.962Z,8.48
2022-10-19T09:23:40.006Z,8.57
2022-10-19T09:26:17.075Z,9.90
2022-10-19T09:29:00.465Z,15.13
2022-10-19T09:31:40.709Z,9.40
2022-10-19T09:34:28.883Z,10.88
2022-10-19T09:36:58.770Z,10.32
2022-10-19T09:39:29.870Z,11.27
2022-10-19T09:42:17.172Z,11.10
2022-10-19T09:44:45.563Z,9.82
2022-10-19T09:47:41.055Z,8.30
2022-10-19T09:50:19.607Z,8.48
2022-10-19T09:53:04.558Z,9.10
2022-10-19T09:55:45.015Z,11.10
2022-10-19T09:58:15.624Z,11.10
2022-10-19T10:00:52.427Z,11.85
2022-10-19T10:03:29.310Z,11.43
2022-10-19T10:06:02.583Z,11.98
2022-10-19T10:08:34.520Z,11.67
2022-10-19T10:11:37.088Z,12.77
2022-10-19T10:14:44.231Z,9.82
2022-10-19T10:17:32.136Z,10.07
2022-10-19T10:20:00.572Z,10.15
2022-10-19T10:22:32.211Z,10.20
2022-10-19T10:25:00.572Z,9.52
2022-10-19T10:27:35.787Z,10.02
2022-10-19T10:30:17.253Z,9.43
2022-10-19T10:32:54.435Z,9.75
2022-10-19T10:35:33.647Z,17.50
2022-10-19T10:38:18.495Z,10.27
2022-10-19T10:40:55.702Z,9.40
2022-10-19T10:43:31.568Z,9.13
2022-10-19T10:46:16.253Z,9.98
2022-10-19T10:48:53.437Z,9.67
2022-10-19T10:51:49.339Z,9.65
2022-10-19T10:54:24.432Z,7.93
2022-10-19T10:57:15.939Z,8.35
2022-10-19T10:59:54.682Z,8.63
2022-10-19T11:02:49.296Z,7.40
2022-10-19T11:05:54.828Z,9.15
2022-10-19T11:08:50.250Z,10.18
2022-10-19T11:11:24.433Z,9.45
2022-10-19T11:14:22.088Z,10.52
2022-10-19T11:16:58.199Z,9.07
2022-10-19T11:19:40.915Z,7.97
2022-10-19T11:22:34.450Z,8.13
2022-10-19T11:25:37.712Z,12.48
2022-10-19T11:28:09.019Z,9.23
2022-10-19T11:31:06.108Z,8.50
2022-10-19T11:33:48.304Z,9.35
2022-10-19T11:36:36.992Z,8.02
2022-10-19T11:39:35.388Z,9.07
2022-10-19T11:42:24.403Z,9.07
2022-10-19T11:44:55.310Z,7.87
2022-10-19T11:48:00.174Z,8.40
2022-10-19T11:50:39.868Z,8.15
2022-10-19T11:53:34.877Z,8.18
2022-10-19T11:56:14.944Z,8.40
2022-10-19T11:59:15.569Z,7.73
2022-10-19T12:01:52.879Z,7.45
2022-10-19T12:04:42.098Z,8.07
2022-10-19T12:07:27.183Z,8.30
2022-10-19T12:10:07.944Z,8.43
2022-10-19T12:12:43.034Z,10.47
2022-10-19T12:15:20.165Z,12.38
2022-10-19T12:17:52.662Z,9.88
2022-10-19T12:20:35.303Z,9.15
2022-10-19T12:23:26.605Z,8.00
2022-10-19T12:25:57.857Z,7.30
2022-10-19T12:28:30.435Z,7.35
2022-10-19T12:31:00.207Z,7.18
2022-10-19T12:33:34.422Z,8.23
2022-10-19T12:36:22.661Z,10.88
2022-10-19T12:39:25.699Z,6.93
2022-10-19T12:42:04.347Z,8.20
2022-10-19T12:44:38.388Z,11.48
2022-10-19T12:47:13.032Z,8.15
2022-10-19T12:49:49.324Z,7.15
2022-10-19T12:52:42.742Z,8.10
2022-10-19T12:55:28.233Z,7.90
2022-10-19T12:58:06.810Z,7.50
2022-10-19T13:00:37.966Z,6.47
2022-10-19T13:03:14.309Z,6.35
2022-10-19T13:05:42.971Z,6.73
2022-10-19T13:08:27.722Z,6.53
2022-10-19T13:11:15.049Z,6.45
2022-10-19T13:14:26.111Z,6.18
2022-10-19T13:17:00.363Z,10.20
2022-10-19T13:19:28.858Z,7.97
2022-10-19T13:22:03.031Z,9.27
2022-10-19T13:24:34.255Z,7.35
2022-10-19T13:27:02.417Z,6.82
2022-10-19T13:29:41.130Z,6.55
2022-10-19T13:32:47.855Z,7.80
2022-10-19T13:35:35.003Z,8.02
2022-10-19T13:38:12.156Z,7.70
2022-10-19T13:41:06.334Z,7.85
2022-10-19T13:43:54.743Z,7.78
2022-10-19T13:46:31.965Z,8.68
2022-10-19T13:49:15.879Z,7.37
2022-10-19T13:52:05.106Z,7.47
2022-10-19T13:55:12.079Z,7.75
2022-10-19T13:57:47.867Z,7.65
2022-10-19T14:00:22.936Z,7.82
2022-10-19T14:03:27.986Z,7.43
2022-10-19T14:06:10.382Z,8.20
2022-10-19T14:08:47.643Z,7.25
2022-10-19T14:11:34.028Z,7.32
2022-10-19T14:14:13.433Z,7.90
2022-10-19T14:16:57.217Z,8.40
2022-10-19T14:19:32.029Z,8.05
2022-10-19T14:22:02.155Z,9.02
2022-10-19T14:24:35.787Z,10.68
2022-10-19T14:27:06.390Z,9.90
2022-10-19T14:29:49.855Z,10.07
2022-10-19T14:32:25.928Z,9.40
2022-10-19T14:34:57.621Z,9.50
2022-10-19T14:37:29.090Z,10.88
2022-10-19T14:40:29.208Z,11.13
2022-10-19T14:42:59.030Z,10.30
2022-10-19T14:45:32.032Z,10.73
2022-10-19T14:48:07.872Z,10.50
2022-10-19T14:50:45.358Z,9.90
2022-10-19T14:53:33.491Z,10.45
2022-10-19T14:56:15.111Z,21.30
2022-10-19T14:58:52.516Z,14.38
2022-10-19T15:01:21.570Z,29.42
2022-10-19T15:03:51.633Z,11.38
2022-10-19T15:06:24.523Z,10.90
2022-10-19T15:09:15.355Z,11.10
2022-10-19T15:11:55.253Z,14.05
2022-10-19T15:14:28.947Z,12.90
2022-10-19T15:17:03.049Z,12.18
2022-10-19T15:19:41.428Z,10.95
2022-10-19T15:22:09.276Z,12.13
2022-10-19T15:24:37.359Z,10.32
2022-10-19T15:27:20.048Z,10.32
2022-10-19T15:29:56.439Z,9.75
2022-10-19T15:32:36.386Z,9.73
2022-10-19T15:35:29.004Z,9.57
2022-10-19T15:38:06.622Z,10.63
2022-10-19T15:40:37.930Z,11.88
2022-10-19T15:43:25.384Z,11.77
2022-10-19T15:46:20.989Z,10.60
2022-10-19T15:48:53.815Z,12.10
2022-10-19T15:51:26.687Z,11.45
2022-10-19T15:54:17.392Z,13.02
2022-10-19T15:56:47.912Z,21.33
2022-10-19T15:59:21.513Z,43.40
2022-10-19T16:01:52.623Z,19.70
2022-10-19T16:04:21.711Z,37.13
2022-10-19T16:06:49.665Z,173.18
2022-10-19T16:09:20.758Z,77.35
2022-10-19T16:11:49.058Z,52.22
2022-10-19T16:16:51.356Z,102.15
2022-10-19T16:19:19.172Z,74.03
2022-10-19T16:21:50.233Z,69.47
2022-10-19T16:24:18.398Z,22.05
2022-10-19T16:26:46.743Z,24.57
2022-10-19T16:29:16.033Z,34.00
2022-10-19T16:31:45.144Z,32.08
2022-10-19T16:34:13.025Z,180.57
2022-10-19T16:36:41.313Z,76.15
2022-10-19T16:39:09.140Z,43.30
2022-10-19T16:44:06.437Z,20.30
2022-10-19T16:46:34.360Z,16.77
2022-10-19T16:49:02.239Z,13.98
2022-10-19T16:51:30.228Z,12.53
2022-10-19T16:53:59.338Z,12.75
2022-10-19T16:56:29.677Z,13.77
2022-10-19T16:59:05.692Z,42.67
2022-10-19T17:01:35.053Z,65.05
2022-10-19T17:04:02.920Z,65.53
2022-10-19T17:06:31.514Z,30.05
2022-10-19T17:09:30.222Z,31.02
2022-10-19T17:11:47.898Z,32.95
2022-10-19T17:14:15.613Z,34.28
2022-10-19T17:16:43.804Z,36.13
2022-10-19T17:19:12.153Z,102.90
2022-10-19T17:21:42.646Z,57.75
2022-10-19T17:24:21.359Z,40.85
2022-10-19T17:26:53.502Z,73.47
2022-10-19T17:29:28.670Z,67.23
2022-10-19T17:32:06.761Z,51.92
2022-10-19T17:34:37.642Z,58.13
2022-10-19T17:37:06.174Z,31.23
2022-10-19T17:39:35.968Z,20.38
2022-10-19T17:42:05.315Z,22.37
2022-10-19T17:44:33.064Z,18.55
2022-10-19T17:47:01.561Z,17.70
2022-10-19T17:49:30.291Z,13.73
2022-10-19T17:51:59.023Z,72.88
2022-10-19T17:54:27.527Z,28.33
2022-10-19T17:56:56.125Z,40.03
2022-10-19T17:59:34.883Z,29.70
2022-10-19T18:02:05.212Z,17.33
2022-10-19T18:04:33.303Z,21.58
2022-10-19T18:07:01.387Z,14.63
2022-10-19T18:09:29.229Z,20.50
2022-10-19T18:11:57.287Z,29.23
2022-10-19T18:14:25.471Z,15.45
2022-10-19T18:16:54.338Z,13.40
2022-10-19T18:19:23.180Z,12.57
2022-10-19T18:21:52.647Z,16.23
2022-10-19T18:24:21.937Z,19.63
2022-10-19T18:26:52.154Z,18.05
2022-10-19T18:29:23.128Z,21.75
2022-10-19T18:31:52.829Z,29.67
2022-10-19T18:34:23.391Z,22.23
2022-10-19T18:36:53.957Z,20.20
2022-10-19T18:39:23.532Z,17.85
2022-10-19T18:41:55.256Z,17.85
2022-10-19T18:44:27.829Z,21.43
2022-10-19T18:46:57.992Z,18.13
2022-10-19T18:49:26.216Z,17.38
2022-10-19T18:51:55.779Z,14.30
2022-10-19T18:54:26.690Z,14.52
2022-10-19T18:56:55.724Z,18.43
2022-10-19T18:59:23.588Z,16.67
2022-10-19T19:01:52.344Z,14.45
2022-10-19T19:04:20.041Z,13.10
2022-10-19T19:06:48.077Z,11.95
2022-10-19T19:09:17.718Z,13.00
2022-10-19T19:11:45.873Z,11.10
2022-10-19T19:14:16.932Z,9.18
2022-10-19T19:16:47.063Z,8.10
2022-10-19T19:19:17.783Z,7.97
2022-10-19T19:21:47.176Z,7.63
2022-10-19T19:24:22.842Z,7.20
2022-10-19T19:26:54.412Z,7.25
2022-10-19T19:29:22.909Z,6.85
2022-10-19T19:31:52.584Z,9.88
2022-10-19T19:34:21.253Z,9.60
2022-10-19T19:36:49.842Z,9.20
2022-10-19T19:39:20.889Z,7.55
2022-10-19T19:41:52.336Z,9.57
2022-10-19T19:44:20.339Z,18.92
2022-10-19T19:46:48.676Z,14.97
2022-10-19T19:49:17.067Z,12.00
2022-10-19T19:51:45.153Z,9.98
2022-10-19T19:54:12.938Z,10.38
2022-10-19T19:56:42.665Z,10.05
2022-10-19T19:59:12.721Z,9.37
2022-10-19T20:01:41.050Z,10.20
2022-10-19T20:04:09.473Z,8.90
2022-10-19T20:06:39.705Z,11.93
2022-10-19T20:09:08.676Z,9.98
2022-10-19T20:11:41.876Z,8.73
2022-10-19T20:14:11.347Z,8.80
2022-10-19T20:16:41.586Z,9.63
2022-10-19T20:19:12.788Z,7.65
2022-10-19T20:21:41.848Z,10.13
2022-10-19T20:24:10.254Z,7.70
2022-10-19T20:26:39.286Z,8.00
2022-10-19T20:29:07.071Z,9.13
2022-10-19T20:31:39.905Z,7.20
2022-10-19T20:34:09.862Z,7.80
2022-10-19T20:36:37.884Z,7.13
2022-10-19T20:39:06.346Z,8.27
2022-10-19T20:41:34.418Z,7.50
2022-10-19T20:44:02.856Z,6.63
2022-10-19T20:46:31.936Z,7.40
2022-10-19T20:49:01.855Z,6.63
2022-10-19T20:51:32.999Z,7.13
2022-10-19T20:54:03.836Z,6.05
2022-10-19T20:56:35.849Z,6.93
2022-10-19T20:59:06.561Z,6.90
2022-10-19T21:01:37.497Z,6.80
2022-10-19T21:04:08.414Z,6.88
2022-10-19T21:06:44.979Z,6.00
2022-10-19T21:09:16.476Z,6.30
2022-10-19T21:11:46.094Z,5.43
2022-10-19T21:14:17.126Z,5.60
2022-10-19T21:16:45.588Z,5.15
2022-10-19T21:19:15.986Z,5.30
2022-10-19T21:21:47.041Z,4.90
2022-10-19T21:24:19.871Z,4.50
2022-10-19T21:26:48.580Z,4.43
2022-10-19T21:29:17.914Z,5.90
2022-10-19T21:31:49.538Z,5.93
2022-10-19T21:34:21.343Z,5.38
2022-10-19T21:36:50.138Z,5.80
2022-10-19T21:39:18.209Z,6.10
2022-10-19T21:41:46.947Z,5.00
2022-10-19T21:44:16.522Z,4.57
2022-10-19T21:46:47.421Z,5.57
2022-10-19T21:49:16.071Z,6.00
2022-10-19T21:51:52.365Z,6.60
2022-10-19T21:54:25.173Z,6.68
2022-10-19T21:56:53.766Z,6.30
2022-10-19T21:59:21.398Z,5.85
2022-10-19T22:01:49.586Z,6.38
2022-10-19T22:04:18.767Z,5.90
2022-10-19T22:06:47.015Z,6.38
2022-10-19T22:09:19.679Z,6.20
2022-10-19T22:11:48.483Z,6.25
2022-10-19T22:14:16.997Z,5.63
2022-10-19T22:16:45.437Z,5.97
2022-10-19T22:19:13.738Z,6.05
2022-10-19T22:21:42.479Z,6.45
2022-10-19T22:24:14.147Z,5.75
2022-10-19T22:26:45.977Z,6.60
2022-10-19T22:29:14.580Z,6.10
2022-10-19T22:31:42.577Z,5.53
2022-10-19T22:34:13.121Z,5.75
2022-10-19T22:36:41.947Z,5.78
2022-10-19T22:39:09.889Z,5.55
2022-10-19T22:41:37.970Z,5.50
2022-10-19T22:44:06.145Z,5.60
2022-10-19T22:46:34.229Z,5.55
2022-10-19T22:49:03.254Z,5.40
2022-10-19T22:51:31.443Z,4.97
2022-10-19T22:53:59.067Z,5.63
2022-10-19T22:56:27.699Z,5.43
2022-10-19T22:58:59.615Z,5.50
2022-10-19T23:01:28.135Z,5.88
2022-10-19T23:03:55.992Z,6.85
2022-10-19T23:06:24.448Z,5.50
2022-10-19T23:08:53.242Z,6.78
2022-10-19T23:11:21.526Z,6.20
2022-10-19T23:13:49.252Z,5.63
2022-10-19T23:16:17.541Z,7.22
2022-10-19T23:18:45.388Z,6.73
2022-10-19T23:21:14.820Z,6.75
2022-10-19T23:23:43.016Z,6.30
2022-10-19T23:26:13.885Z,5.95
2022-10-19T23:28:44.662Z,4.78
2022-10-19T23:31:25.191Z,4.60
2022-10-19T23:33:53.638Z,2.78
2022-10-19T23:36:24.462Z,2.65
2022-10-19T23:38:53.670Z,3.00
2022-10-19T23:41:22.331Z,2.90
2022-10-19T23:43:50.228Z,2.53
2022-10-19T23:46:19.181Z,2.50
2022-10-19T23:48:47.053Z,2.92
2022-10-19T23:51:17.593Z,2.72
2022-10-19T23:53:47.763Z,2.72
2022-10-19T23:56:26.943Z,3.10
2022-10-19T23:58:55.900Z,2.75
